LTBR/YEI METAR and TAF weather

Enter ICAO airport designator
Station Type Date Time Source
LTBR METAR 2020/04/08 21:50 UTC NOAA

LTBR 082150Z 10005KT CAVOK 02/00 Q1020 NOSIG


Station Type Date Time Source
LTBR Decoded METAR 2020/04/08 21:50 UTC NOAA

Bursa / Yenisehir, Mil-Civ, Turkey (LTBR) 40-15-19N 029-33-45E
Apr 08, 2020 - 05:50 PM EDT / 2020.04.08 2150 UTC
Wind: from the E (100 degrees) at 6 MPH (5 KT):0
Visibility: greater than 7 mile(s):0
Temperature: 35 F (2 C)
Windchill: 30 F (-1 C):1
Dew Point: 32 F (0 C)
Relative Humidity: 86%
Pressure (altimeter): 30.12 in. Hg (1020 hPa)
ob: LTBR 082150Z 10005KT CAVOK 02/00 Q1020 NOSIG
cycle: 22

Station Type Date Time Source
LTBR TAF 2020/04/08 18:03 UTC NOAA

TAF LTBR 081640Z 0818/0918 36012KT CAVOK
BECMG 0818/0820 VRB02KT PROB40 0903/0906 4000 BR
BECMG 0909/0912 36012KT
TEMPO 0913/0916 01015G25KT

Example: see airport list